TIV weather

Tivat Airport
Tivat, Tivat Municipality, Montenegro

Public forecast

Using degrees Celsius for public forecast. Weather courtesy of forecast.io.

Current aviation weather report (METAR) for Tivat Airport

Retrieved 2020/05/26 08:30 UTC (23 minutes ago):

LYTV 260830Z VRB08KT CAVOK 21/03 Q1020 NOSIG

Aviation forecast (TAF) for Tivat Airport

Retrieved 2020/05/26 06:00 UTC (3 hours ago):

TAF LYTV 260500Z 2606/2706 02012KT CAVOK TX25/2613Z TN15/2703Z BECMG 2609/2611 24008KT BECMG 2618/2620 02015G25KT